createdAt,value
2018-05-02T00:00:13.995Z,6.60
2018-05-02T00:01:14.018Z,6.40
2018-05-02T00:02:14.029Z,6.40
2018-05-02T00:03:14.090Z,6.50
2018-05-02T00:04:14.082Z,6.60
2018-05-02T00:05:14.069Z,6.60
2018-05-02T00:06:14.084Z,6.70
2018-05-02T00:07:14.096Z,6.80
2018-05-02T00:08:14.110Z,6.80
2018-05-02T00:09:14.124Z,6.60
2018-05-02T00:10:14.219Z,6.60
2018-05-02T00:12:14.635Z,7.10
2018-05-02T00:13:14.181Z,6.90
2018-05-02T00:14:14.193Z,6.70
2018-05-02T00:15:14.207Z,6.80
2018-05-02T00:16:14.220Z,7.20
2018-05-02T00:17:14.234Z,7.40
2018-05-02T00:18:14.248Z,7.40
2018-05-02T00:19:14.265Z,7.30
2018-05-02T00:20:14.280Z,8.10
2018-05-02T00:21:14.290Z,7.40
2018-05-02T00:22:14.310Z,7.30
2018-05-02T00:23:14.319Z,7.10
2018-05-02T00:24:14.334Z,7.40
2018-05-02T00:25:14.351Z,7.30
2018-05-02T00:26:14.360Z,7.40
2018-05-02T00:27:14.376Z,7.60
2018-05-02T00:28:14.390Z,7.50
2018-05-02T00:29:14.402Z,7.90
2018-05-02T00:30:14.447Z,8.10
2018-05-02T00:31:14.468Z,8.00
2018-05-02T00:32:14.445Z,7.50
2018-05-02T00:33:14.490Z,7.40
2018-05-02T00:34:14.477Z,7.90
2018-05-02T00:35:14.493Z,8.00
2018-05-02T00:36:14.550Z,8.60
2018-05-02T00:37:14.556Z,8.00
2018-05-02T00:38:14.531Z,8.30
2018-05-02T00:39:14.543Z,8.50
2018-05-02T00:40:14.567Z,7.90
2018-05-02T00:41:14.723Z,7.70
2018-05-02T00:42:15.071Z,7.80
2018-05-02T00:43:14.600Z,7.40
2018-05-02T00:44:14.618Z,8.40
2018-05-02T00:45:14.627Z,7.90
2018-05-02T00:46:14.641Z,8.80
2018-05-02T00:47:14.655Z,8.20
2018-05-02T00:48:14.671Z,7.90
2018-05-02T00:49:14.690Z,8.10
2018-05-02T00:50:14.695Z,9.00
2018-05-02T00:51:14.726Z,8.90
2018-05-02T00:52:14.724Z,8.10
2018-05-02T00:53:14.738Z,8.40
2018-05-02T00:54:14.758Z,8.20
2018-05-02T00:55:14.768Z,8.40
2018-05-02T00:56:14.780Z,8.70
2018-05-02T00:57:14.795Z,8.60
2018-05-02T00:58:14.808Z,8.00
2018-05-02T00:59:14.824Z,8.90
2018-05-02T01:00:14.836Z,8.70
2018-05-02T01:01:14.849Z,8.40
2018-05-02T01:02:14.865Z,8.50
2018-05-02T01:03:14.876Z,8.90
2018-05-02T01:04:14.890Z,8.90
2018-05-02T01:05:14.906Z,8.40
2018-05-02T01:06:14.919Z,8.20
2018-05-02T01:07:14.987Z,8.70
2018-05-02T01:08:15.000Z,8.80
2018-05-02T01:09:14.961Z,8.60
2018-05-02T01:10:15.107Z,8.20
2018-05-02T01:12:15.246Z,9.10
2018-05-02T01:13:15.028Z,8.90
2018-05-02T01:14:15.036Z,8.80
2018-05-02T01:15:15.049Z,9.50
2018-05-02T01:16:15.057Z,9.10
2018-05-02T01:17:15.079Z,9.10
2018-05-02T01:18:15.085Z,9.10
2018-05-02T01:19:15.101Z,8.80
2018-05-02T01:20:15.121Z,9.00
2018-05-02T01:21:15.129Z,8.60
2018-05-02T01:22:15.140Z,8.30
2018-05-02T01:23:15.156Z,8.90
2018-05-02T01:24:15.170Z,8.90
2018-05-02T01:25:15.192Z,9.30
2018-05-02T01:26:15.198Z,9.30
2018-05-02T01:27:15.211Z,8.80
2018-05-02T01:28:15.229Z,9.60
2018-05-02T01:29:15.237Z,9.10
2018-05-02T01:30:15.251Z,9.70
2018-05-02T01:31:15.270Z,9.40
2018-05-02T01:32:15.280Z,9.30
2018-05-02T01:33:15.298Z,9.40
2018-05-02T01:34:15.307Z,8.60
2018-05-02T01:35:15.325Z,8.70
2018-05-02T01:36:15.335Z,8.70
2018-05-02T01:37:15.348Z,9.50
2018-05-02T01:38:15.368Z,9.00
2018-05-02T01:39:15.376Z,9.90
2018-05-02T01:40:15.390Z,9.20
2018-05-02T01:41:15.409Z,9.50
2018-05-02T01:42:15.418Z,8.80
2018-05-02T01:43:15.508Z,8.70
2018-05-02T01:44:15.688Z,9.00
2018-05-02T01:45:15.733Z,9.50
2018-05-02T01:46:15.470Z,9.30
2018-05-02T01:47:15.493Z,9.20
2018-05-02T01:48:15.503Z,8.90
2018-05-02T01:49:15.513Z,8.90
2018-05-02T01:50:15.528Z,9.00
2018-05-02T01:51:15.540Z,9.10
2018-05-02T01:52:15.556Z,9.20
2018-05-02T01:53:15.568Z,9.90
2018-05-02T01:54:15.588Z,9.00
2018-05-02T01:55:15.596Z,9.10
2018-05-02T01:56:15.611Z,9.40
2018-05-02T01:57:15.624Z,9.20
2018-05-02T01:58:15.644Z,8.70
2018-05-02T01:59:15.651Z,8.90
2018-05-02T02:00:15.666Z,9.70
2018-05-02T02:01:15.682Z,8.90
2018-05-02T02:02:15.693Z,9.40
2018-05-02T02:03:15.711Z,9.60
2018-05-02T02:04:15.720Z,9.20
2018-05-02T02:05:15.731Z,8.70
2018-05-02T02:06:15.755Z,8.70
2018-05-02T02:07:15.761Z,8.80
2018-05-02T02:08:15.773Z,9.70
2018-05-02T02:09:15.788Z,8.80
2018-05-02T02:10:15.797Z,9.40
2018-05-02T02:11:15.815Z,9.50
2018-05-02T02:12:15.831Z,9.20
2018-05-02T02:13:15.989Z,8.90
2018-05-02T02:14:15.853Z,9.30
2018-05-02T02:15:15.874Z,9.10
2018-05-02T02:16:15.884Z,9.50
2018-05-02T02:17:15.898Z,8.70
2018-05-02T02:18:15.910Z,9.40
2018-05-02T02:19:15.924Z,8.40
2018-05-02T02:20:15.936Z,8.90
2018-05-02T02:21:15.951Z,9.00
2018-05-02T02:22:15.964Z,8.70
2018-05-02T02:23:15.980Z,8.30
2018-05-02T02:24:15.988Z,8.90
2018-05-02T02:25:16.009Z,9.10
2018-05-02T02:26:16.018Z,8.10
2018-05-02T02:27:16.032Z,9.00
2018-05-02T02:28:16.046Z,8.70
2018-05-02T02:29:16.058Z,8.90
2018-05-02T02:30:16.083Z,8.10
2018-05-02T02:31:16.088Z,8.60
2018-05-02T02:32:16.099Z,9.30
2018-05-02T02:33:16.111Z,8.90
2018-05-02T02:34:16.146Z,8.70
2018-05-02T02:35:16.138Z,9.40
2018-05-02T02:36:16.152Z,9.00
2018-05-02T02:37:16.172Z,9.20
2018-05-02T02:38:16.182Z,8.90
2018-05-02T02:39:16.194Z,9.40
2018-05-02T02:40:16.212Z,9.30
2018-05-02T02:41:16.221Z,9.10
2018-05-02T02:42:16.235Z,8.40
2018-05-02T02:43:16.252Z,8.70
2018-05-02T02:44:16.263Z,8.70
2018-05-02T02:45:16.275Z,8.80
2018-05-02T02:46:16.321Z,8.90
2018-05-02T02:47:16.328Z,9.10
2018-05-02T02:48:16.315Z,8.60
2018-05-02T02:49:16.357Z,8.80
2018-05-02T02:50:16.348Z,9.20
2018-05-02T02:51:16.356Z,8.40
2018-05-02T02:52:16.386Z,9.10
2018-05-02T02:53:16.384Z,8.60
2018-05-02T02:54:16.396Z,8.70
2018-05-02T02:55:16.453Z,8.40
2018-05-02T02:56:16.425Z,9.10
2018-05-02T02:57:16.436Z,8.50
2018-05-02T02:58:16.451Z,8.00
2018-05-02T02:59:16.476Z,9.10
2018-05-02T03:00:16.480Z,9.30
2018-05-02T03:01:16.491Z,8.90
2018-05-02T03:02:16.507Z,8.50
2018-05-02T03:03:16.520Z,8.40
2018-05-02T03:04:16.540Z,8.70
2018-05-02T03:05:16.545Z,8.70
2018-05-02T03:06:16.561Z,8.90
2018-05-02T03:07:16.574Z,8.30
2018-05-02T03:08:16.586Z,8.50
2018-05-02T03:09:16.598Z,8.50
2018-05-02T03:10:16.613Z,8.60
2018-05-02T03:11:16.626Z,8.30
2018-05-02T03:12:16.640Z,8.90
2018-05-02T03:13:16.651Z,9.20
2018-05-02T03:14:16.666Z,8.80
2018-05-02T03:15:16.686Z,8.60
2018-05-02T03:16:16.697Z,8.80
2018-05-02T03:17:16.706Z,9.00
2018-05-02T03:18:16.723Z,8.50
2018-05-02T03:19:16.732Z,8.60
2018-05-02T03:20:16.806Z,8.90
2018-05-02T03:21:16.761Z,8.50
2018-05-02T03:22:16.772Z,9.20
2018-05-02T03:23:16.787Z,8.80
2018-05-02T03:24:16.799Z,8.30
2018-05-02T03:25:16.829Z,8.30
2018-05-02T03:26:16.827Z,8.10
2018-05-02T03:27:16.844Z,8.00
2018-05-02T03:28:16.853Z,8.00
2018-05-02T03:29:16.868Z,8.50
2018-05-02T03:30:16.881Z,8.50
2018-05-02T03:31:16.899Z,9.10
2018-05-02T03:32:16.908Z,8.70
2018-05-02T03:33:16.921Z,8.80
2018-05-02T03:34:16.935Z,8.70
2018-05-02T03:35:16.948Z,8.40
2018-05-02T03:36:16.958Z,9.10
2018-05-02T03:37:16.972Z,8.80
2018-05-02T03:38:16.988Z,9.20
2018-05-02T03:39:17.005Z,8.30
2018-05-02T03:40:17.013Z,8.20
2018-05-02T03:41:17.029Z,9.00
2018-05-02T03:42:17.243Z,8.50
2018-05-02T03:43:17.057Z,8.40
2018-05-02T03:44:17.070Z,9.20
2018-05-02T03:45:17.079Z,8.10
2018-05-02T03:46:17.094Z,8.80
2018-05-02T03:47:17.110Z,8.90
2018-05-02T03:48:17.121Z,8.70
2018-05-02T03:49:17.133Z,8.90
2018-05-02T03:50:17.148Z,8.20
2018-05-02T03:51:17.166Z,9.00
2018-05-02T03:52:17.181Z,8.70
2018-05-02T03:53:17.199Z,8.70
2018-05-02T03:54:17.263Z,8.50
2018-05-02T03:55:17.214Z,8.50
2018-05-02T03:56:17.225Z,8.90
2018-05-02T03:57:17.241Z,8.40
2018-05-02T03:58:17.253Z,8.40
2018-05-02T03:59:17.266Z,8.30
2018-05-02T04:00:17.277Z,8.10
2018-05-02T04:01:17.397Z,7.80
2018-05-02T04:02:17.313Z,8.20
2018-05-02T04:03:17.320Z,8.30
2018-05-02T04:04:17.327Z,8.20
2018-05-02T04:05:17.338Z,8.20
2018-05-02T04:06:17.357Z,8.60
2018-05-02T04:07:17.367Z,8.50
2018-05-02T04:08:17.385Z,8.10
2018-05-02T04:09:17.394Z,8.30
2018-05-02T04:10:17.405Z,8.40
2018-05-02T04:11:17.426Z,8.10
2018-05-02T04:12:17.432Z,8.40
2018-05-02T04:13:17.448Z,8.20
2018-05-02T04:14:17.457Z,8.20
2018-05-02T04:15:17.471Z,8.00
2018-05-02T04:16:17.485Z,7.50
2018-05-02T04:17:17.498Z,8.00
2018-05-02T04:18:17.514Z,8.00
2018-05-02T04:19:17.524Z,8.50
2018-05-02T04:20:17.535Z,8.60
2018-05-02T04:21:17.549Z,8.50
2018-05-02T04:22:17.563Z,8.30
2018-05-02T04:23:17.580Z,8.20
2018-05-02T04:24:17.588Z,8.20
2018-05-02T04:25:17.603Z,7.90
2018-05-02T04:26:17.621Z,7.90
2018-05-02T04:27:17.630Z,7.90
2018-05-02T04:28:17.643Z,8.40
2018-05-02T04:29:17.656Z,7.90
2018-05-02T04:30:17.682Z,7.90
2018-05-02T04:31:17.687Z,7.70
2018-05-02T04:32:17.696Z,7.80
2018-05-02T04:33:17.712Z,7.90
2018-05-02T04:34:17.721Z,8.30
2018-05-02T04:35:17.734Z,8.20
2018-05-02T04:36:17.749Z,7.70
2018-05-02T04:37:17.771Z,8.00
2018-05-02T04:38:17.777Z,7.90
2018-05-02T04:39:17.788Z,7.70
2018-05-02T04:40:17.851Z,7.60
2018-05-02T04:41:17.817Z,7.80
2018-05-02T04:42:17.825Z,7.70
2018-05-02T04:44:18.390Z,7.50
2018-05-02T04:45:17.865Z,7.70
2018-05-02T04:46:17.879Z,7.60
2018-05-02T04:47:17.895Z,7.90
2018-05-02T04:48:17.905Z,8.00
2018-05-02T04:49:17.917Z,8.00
2018-05-02T04:50:17.931Z,7.70
2018-05-02T04:51:17.946Z,8.10
2018-05-02T04:52:17.968Z,7.80
2018-05-02T04:53:17.975Z,8.00
2018-05-02T04:54:17.985Z,7.60
2018-05-02T04:55:18.011Z,8.30
2018-05-02T04:56:19.664Z,9.00
2018-05-02T04:57:18.040Z,8.40
2018-05-02T04:58:18.129Z,8.00
2018-05-02T04:59:18.051Z,9.20
2018-05-02T05:00:18.067Z,7.90
2018-05-02T05:01:18.091Z,8.00
2018-05-02T05:02:18.095Z,7.90
2018-05-02T05:03:18.105Z,8.00
2018-05-02T05:04:18.115Z,7.90
2018-05-02T05:05:18.131Z,7.80
2018-05-02T05:06:18.147Z,8.00
2018-05-02T05:07:18.155Z,7.50
2018-05-02T05:08:18.168Z,8.00
2018-05-02T05:09:18.185Z,7.60
2018-05-02T05:10:18.196Z,8.30
2018-05-02T05:11:18.212Z,8.10
2018-05-02T05:12:18.268Z,8.10
2018-05-02T05:13:18.239Z,7.90
2018-05-02T05:14:18.249Z,8.10
2018-05-02T05:15:18.262Z,7.80
2018-05-02T05:16:18.276Z,7.60
2018-05-02T05:17:18.287Z,7.70
2018-05-02T05:18:18.302Z,7.20
2018-05-02T05:19:18.314Z,7.30
2018-05-02T05:20:18.329Z,7.30
2018-05-02T05:21:18.341Z,8.20
2018-05-02T05:22:18.354Z,7.90
2018-05-02T05:23:18.368Z,7.80
2018-05-02T05:24:18.380Z,7.70
2018-05-02T05:25:18.399Z,7.40
2018-05-02T05:26:18.409Z,7.60
2018-05-02T05:27:18.432Z,7.70
2018-05-02T05:28:18.467Z,7.30
2018-05-02T05:29:18.451Z,8.10
2018-05-02T05:30:18.481Z,8.40
2018-05-02T05:31:18.478Z,7.90
2018-05-02T05:32:18.494Z,7.90
2018-05-02T05:33:18.530Z,7.80
2018-05-02T05:34:18.524Z,7.60
2018-05-02T05:35:18.610Z,7.40
2018-05-02T05:36:18.544Z,7.70
2018-05-02T05:37:18.558Z,7.70
2018-05-02T05:38:18.572Z,7.40
2018-05-02T05:39:18.889Z,6.80
2018-05-02T05:40:18.598Z,6.90
2018-05-02T05:41:18.614Z,6.80
2018-05-02T05:42:18.654Z,6.60
2018-05-02T05:43:18.640Z,7.30
2018-05-02T05:44:18.654Z,6.80
2018-05-02T05:45:18.670Z,7.00
2018-05-02T05:46:18.688Z,7.10
2018-05-02T05:47:18.727Z,6.60
2018-05-02T05:48:18.714Z,6.70
2018-05-02T05:49:18.727Z,6.80
2018-05-02T05:50:18.741Z,6.20
2018-05-02T05:51:18.761Z,7.00
2018-05-02T05:52:18.769Z,6.20
2018-05-02T05:53:18.785Z,6.70
2018-05-02T05:54:18.890Z,6.60
2018-05-02T05:55:18.828Z,6.60
2018-05-02T05:56:18.846Z,6.50
2018-05-02T05:57:18.846Z,6.70
2018-05-02T05:58:18.861Z,6.60
2018-05-02T05:59:18.885Z,6.70
2018-05-02T06:00:18.892Z,6.70
2018-05-02T06:01:18.901Z,6.40
2018-05-02T06:02:18.916Z,7.00
2018-05-02T06:03:18.934Z,7.50
2018-05-02T06:04:18.944Z,7.30
2018-05-02T06:05:18.960Z,8.80
2018-05-02T06:06:19.092Z,6.90
2018-05-02T06:07:18.987Z,7.80
2018-05-02T06:08:19.012Z,6.90
2018-05-02T06:09:19.018Z,6.60
2018-05-02T06:10:20.097Z,6.10
2018-05-02T06:11:19.055Z,6.90
2018-05-02T06:12:19.070Z,6.30
2018-05-02T06:13:19.075Z,6.90
2018-05-02T06:14:19.089Z,6.90
2018-05-02T06:15:19.111Z,6.80
2018-05-02T06:16:19.117Z,6.50
2018-05-02T06:17:19.135Z,6.50
2018-05-02T06:18:19.146Z,6.20
2018-05-02T06:19:19.175Z,5.80
2018-05-02T06:20:19.179Z,6.70
2018-05-02T06:21:19.191Z,6.60
2018-05-02T06:22:19.203Z,6.70
2018-05-02T06:23:19.219Z,6.80
2018-05-02T06:24:19.234Z,6.70
2018-05-02T06:25:19.248Z,6.20
2018-05-02T06:26:19.263Z,6.50
2018-05-02T06:27:19.281Z,6.20
2018-05-02T06:28:19.300Z,6.10
2018-05-02T06:29:19.312Z,6.90
2018-05-02T06:30:19.326Z,6.50
2018-05-02T06:31:19.366Z,6.70
2018-05-02T06:32:19.354Z,7.20
2018-05-02T06:33:19.366Z,6.60
2018-05-02T06:34:19.379Z,7.20
2018-05-02T06:35:19.400Z,6.60
2018-05-02T06:36:19.404Z,6.20
2018-05-02T06:37:19.417Z,7.10
2018-05-02T06:38:19.448Z,6.30
2018-05-02T06:39:19.447Z,6.50
2018-05-02T06:40:19.461Z,6.30
2018-05-02T06:41:19.472Z,7.10
2018-05-02T06:42:19.488Z,6.60
2018-05-02T06:43:19.513Z,6.70
2018-05-02T06:44:19.516Z,6.00
2018-05-02T06:45:19.532Z,6.30
2018-05-02T06:46:19.545Z,6.10
2018-05-02T06:47:19.559Z,6.50
2018-05-02T06:48:19.574Z,6.20
2018-05-02T06:49:19.647Z,5.90
2018-05-02T06:50:19.689Z,6.10
2018-05-02T06:51:19.619Z,6.90
2018-05-02T06:52:19.634Z,6.70
2018-05-02T06:53:19.649Z,6.60
2018-05-02T06:54:19.670Z,6.10
2018-05-02T06:55:20.064Z,6.20
2018-05-02T06:56:19.692Z,6.00
2018-05-02T06:57:19.721Z,5.90
2018-05-02T06:58:19.721Z,6.40
2018-05-02T06:59:19.758Z,6.20
2018-05-02T07:00:19.760Z,6.00
2018-05-02T07:01:20.134Z,6.20
2018-05-02T07:02:21.108Z,6.10
2018-05-02T07:03:19.795Z,6.00
2018-05-02T07:04:19.868Z,5.80
2018-05-02T07:05:19.963Z,6.40
2018-05-02T07:06:20.002Z,6.10
2018-05-02T07:07:19.870Z,5.40
2018-05-02T07:08:19.891Z,5.20
2018-05-02T07:09:19.883Z,5.50
2018-05-02T07:10:20.652Z,6.20
2018-05-02T07:11:19.919Z,5.70
2018-05-02T07:12:19.926Z,5.80
2018-05-02T07:13:19.944Z,5.90
2018-05-02T07:14:19.957Z,6.20
2018-05-02T07:15:19.979Z,5.80
2018-05-02T07:16:19.989Z,5.60
2018-05-02T07:17:20.010Z,5.00
2018-05-02T07:18:20.020Z,5.20
2018-05-02T07:19:20.039Z,5.70
2018-05-02T07:20:20.052Z,5.70
2018-05-02T07:21:20.062Z,5.30
2018-05-02T07:22:20.075Z,5.60
2018-05-02T07:23:20.117Z,5.20
2018-05-02T07:24:20.108Z,5.30
2018-05-02T07:25:20.123Z,5.20
2018-05-02T07:26:20.135Z,5.10
2018-05-02T07:27:20.160Z,5.20
2018-05-02T07:28:20.169Z,5.30
2018-05-02T07:29:20.180Z,5.00
2018-05-02T07:30:20.194Z,5.20
2018-05-02T07:31:20.216Z,5.40
2018-05-02T07:32:20.224Z,5.50
2018-05-02T07:33:21.484Z,5.60
2018-05-02T07:34:20.259Z,5.40
2018-05-02T07:35:20.271Z,5.00
2018-05-02T07:36:20.290Z,5.40
2018-05-02T07:37:20.301Z,5.30
2018-05-02T07:38:20.315Z,5.30
2018-05-02T07:39:20.332Z,5.50
2018-05-02T07:40:20.364Z,5.30
2018-05-02T07:41:20.359Z,6.00
2018-05-02T07:42:20.383Z,5.50
2018-05-02T07:43:20.400Z,5.20
2018-05-02T07:44:20.408Z,5.20
2018-05-02T07:45:20.425Z,4.70
2018-05-02T07:46:20.438Z,5.10
2018-05-02T07:47:20.503Z,4.70
2018-05-02T07:48:20.467Z,5.10
2018-05-02T07:49:20.492Z,5.20
2018-05-02T07:50:20.499Z,4.60
2018-05-02T07:51:20.731Z,4.60
2018-05-02T07:52:21.183Z,4.70
2018-05-02T07:53:20.545Z,4.70
2018-05-02T07:54:20.558Z,4.60
2018-05-02T07:55:20.582Z,4.90
2018-05-02T07:56:20.601Z,4.80
2018-05-02T07:57:20.603Z,5.00
2018-05-02T07:58:20.622Z,5.00
2018-05-02T07:59:20.653Z,4.90
2018-05-02T08:00:20.661Z,5.00
2018-05-02T08:01:20.672Z,5.00
2018-05-02T08:02:20.729Z,5.40
2018-05-02T08:03:20.754Z,4.70
2018-05-02T08:04:20.731Z,4.70
2018-05-02T08:05:20.752Z,4.50
2018-05-02T08:06:20.859Z,4.00
2018-05-02T08:07:20.757Z,4.20
2018-05-02T08:08:20.923Z,4.00
2018-05-02T08:09:20.837Z,4.50
2018-05-02T08:10:20.809Z,4.20
2018-05-02T08:11:20.827Z,4.10
2018-05-02T08:12:20.917Z,4.40
2018-05-02T08:13:20.853Z,4.10
2018-05-02T08:14:20.894Z,4.10
2018-05-02T08:15:20.880Z,3.90
2018-05-02T08:16:20.925Z,4.10
2018-05-02T08:17:20.924Z,4.40
2018-05-02T08:18:20.934Z,4.10
2018-05-02T08:19:20.947Z,4.00
2018-05-02T08:20:20.978Z,4.20
2018-05-02T08:21:21.241Z,3.90
2018-05-02T08:22:21.078Z,4.00
2018-05-02T08:23:21.220Z,3.90
2018-05-02T08:24:21.109Z,3.70
2018-05-02T08:25:21.048Z,4.00
2018-05-02T08:26:21.056Z,3.70
2018-05-02T08:27:21.068Z,3.90
2018-05-02T08:28:21.080Z,4.00
2018-05-02T08:29:21.093Z,4.00
2018-05-02T08:30:21.111Z,3.90
2018-05-02T08:31:21.239Z,3.70
2018-05-02T08:32:21.141Z,3.90
2018-05-02T08:33:21.161Z,3.70
2018-05-02T08:34:21.173Z,4.10
2018-05-02T08:35:21.196Z,4.00
2018-05-02T08:36:21.203Z,4.00
2018-05-02T08:37:21.218Z,4.40
2018-05-02T08:38:21.235Z,4.20
2018-05-02T08:39:21.251Z,4.00
2018-05-02T08:40:21.266Z,4.50
2018-05-02T08:41:21.282Z,4.30
2018-05-02T08:42:21.298Z,4.00
2018-05-02T08:43:21.316Z,4.30
2018-05-02T08:44:21.883Z,4.60
2018-05-02T08:45:21.365Z,4.50
2018-05-02T08:46:21.370Z,4.20
2018-05-02T08:47:21.375Z,4.50
2018-05-02T08:48:21.395Z,4.20
2018-05-02T08:49:21.405Z,4.40
2018-05-02T08:50:21.424Z,4.50
2018-05-02T08:51:21.643Z,4.80
2018-05-02T08:52:21.453Z,4.40
2018-05-02T08:53:21.468Z,4.40
2018-05-02T08:54:21.489Z,4.50
2018-05-02T08:55:21.500Z,4.00
2018-05-02T08:56:21.519Z,4.10
2018-05-02T08:57:21.573Z,4.30
2018-05-02T08:58:21.555Z,4.20
2018-05-02T08:59:21.569Z,4.70
2018-05-02T09:00:21.580Z,4.50
2018-05-02T09:01:21.596Z,4.40
2018-05-02T09:02:21.613Z,5.40
2018-05-02T09:03:21.631Z,4.50
2018-05-02T09:04:21.644Z,4.90
2018-05-02T09:05:21.660Z,4.70
2018-05-02T09:06:21.686Z,5.10
2018-05-02T09:07:21.695Z,4.50
2018-05-02T09:08:21.708Z,4.90
2018-05-02T09:09:21.727Z,4.80
2018-05-02T09:10:21.746Z,5.20
2018-05-02T09:11:21.759Z,4.40
2018-05-02T09:12:21.771Z,4.70
2018-05-02T09:13:21.801Z,4.50
2018-05-02T09:14:21.812Z,4.50
2018-05-02T09:15:21.821Z,4.70
2018-05-02T09:16:21.838Z,4.20
2018-05-02T09:17:21.888Z,4.20
2018-05-02T09:18:21.872Z,3.80
2018-05-02T09:19:21.905Z,4.30
2018-05-02T09:20:21.908Z,4.00
2018-05-02T09:21:21.935Z,3.60
2018-05-02T09:22:21.937Z,4.40
2018-05-02T09:23:21.950Z,3.60
2018-05-02T09:24:21.971Z,3.50
2018-05-02T09:25:21.990Z,3.20
2018-05-02T09:26:22.000Z,3.80
2018-05-02T09:27:22.014Z,4.10
2018-05-02T09:28:22.037Z,3.90
2018-05-02T09:29:22.045Z,3.70
2018-05-02T09:30:22.071Z,4.10
2018-05-02T09:31:23.652Z,3.70
2018-05-02T09:32:22.105Z,4.30
2018-05-02T09:33:22.114Z,4.00
2018-05-02T09:34:22.127Z,4.40
2018-05-02T09:35:22.150Z,4.00
2018-05-02T09:36:22.173Z,3.80
2018-05-02T09:37:22.180Z,3.50
2018-05-02T09:38:22.197Z,3.70
2018-05-02T09:39:22.207Z,4.20
2018-05-02T09:40:22.224Z,3.70
2018-05-02T09:41:22.239Z,3.80
2018-05-02T09:42:22.252Z,3.90
2018-05-02T09:43:22.271Z,3.80
2018-05-02T09:44:22.287Z,3.80
2018-05-02T09:45:22.302Z,4.50
2018-05-02T09:46:22.322Z,4.30
2018-05-02T09:47:22.336Z,4.40
2018-05-02T09:48:22.453Z,4.20
2018-05-02T09:49:22.370Z,3.90
2018-05-02T09:50:22.382Z,4.00
2018-05-02T09:51:22.402Z,3.60
2018-05-02T09:52:22.426Z,3.50
2018-05-02T09:53:22.433Z,3.30
2018-05-02T09:54:22.455Z,3.40
2018-05-02T09:55:22.523Z,3.50
2018-05-02T09:56:22.481Z,3.80
2018-05-02T09:57:22.499Z,3.30
2018-05-02T09:58:22.519Z,3.50
2018-05-02T09:59:22.530Z,3.60
2018-05-02T10:00:22.548Z,3.40
2018-05-02T10:01:22.568Z,3.60
2018-05-02T10:02:22.663Z,3.40
2018-05-02T10:03:22.607Z,3.80
2018-05-02T10:04:22.685Z,3.60
2018-05-02T10:05:22.630Z,3.60
2018-05-02T10:06:22.647Z,3.30
2018-05-02T10:07:22.670Z,3.90
2018-05-02T10:08:22.689Z,3.60
2018-05-02T10:09:22.705Z,3.50
2018-05-02T10:10:22.711Z,3.80
2018-05-02T10:11:22.734Z,3.60
2018-05-02T10:12:23.061Z,3.90
2018-05-02T10:13:22.762Z,3.80
2018-05-02T10:14:22.780Z,3.60
2018-05-02T10:15:22.798Z,3.40
2018-05-02T10:16:22.812Z,3.60
2018-05-02T10:17:22.829Z,3.40
2018-05-02T10:18:22.913Z,3.80
2018-05-02T10:19:22.861Z,3.60
2018-05-02T10:20:22.879Z,3.90
2018-05-02T10:21:22.955Z,3.60
2018-05-02T10:22:22.920Z,3.30
2018-05-02T10:23:22.932Z,3.10
2018-05-02T10:24:22.948Z,2.70
2018-05-02T10:25:22.961Z,2.80
2018-05-02T10:26:23.069Z,2.90
2018-05-02T10:27:23.007Z,3.20
2018-05-02T10:28:23.035Z,3.10
2018-05-02T10:29:23.165Z,2.80
2018-05-02T10:30:23.058Z,3.30
2018-05-02T10:31:23.069Z,3.40
2018-05-02T10:32:23.085Z,3.10
2018-05-02T10:33:23.095Z,3.50
2018-05-02T10:34:23.128Z,3.20
2018-05-02T10:35:23.128Z,3.50
2018-05-02T10:36:23.146Z,3.50
2018-05-02T10:37:23.184Z,3.40
2018-05-02T10:38:23.244Z,3.30
2018-05-02T10:39:27.031Z,3.00
2018-05-02T10:41:23.233Z,3.10
2018-05-02T10:42:23.251Z,3.20
2018-05-02T10:43:23.285Z,3.50
2018-05-02T10:44:23.282Z,3.30
2018-05-02T10:45:23.791Z,3.40
2018-05-02T10:46:23.902Z,3.60
2018-05-02T10:47:23.348Z,3.30
2018-05-02T10:48:23.346Z,3.20
2018-05-02T10:49:23.360Z,3.40
2018-05-02T10:51:15.795Z,3.40
2018-05-02T10:51:23.699Z,3.40
2018-05-02T10:52:23.626Z,3.40
2018-05-02T10:53:23.445Z,3.30
2018-05-02T10:54:23.462Z,3.10
2018-05-02T10:55:23.467Z,3.20
2018-05-02T10:56:23.485Z,2.90
2018-05-02T10:57:23.496Z,3.10
2018-05-02T10:58:23.507Z,2.80
2018-05-02T10:59:23.530Z,2.70
2018-05-02T11:00:23.541Z,2.40
2018-05-02T11:01:23.561Z,2.50
2018-05-02T11:02:23.575Z,2.70
2018-05-02T11:03:23.603Z,2.70
2018-05-02T11:04:23.606Z,2.60
2018-05-02T11:05:23.814Z,2.50
2018-05-02T11:06:24.219Z,3.00
2018-05-02T11:07:23.908Z,3.00
2018-05-02T11:08:23.798Z,2.50
2018-05-02T11:09:23.689Z,3.00
2018-05-02T11:10:23.711Z,2.90
2018-05-02T11:13:27.319Z,2.70
2018-05-02T11:15:24.005Z,2.80
2018-05-02T11:17:24.043Z,2.70
2018-05-02T11:18:28.122Z,3.10
2018-05-02T11:19:24.747Z,2.70
2018-05-02T11:20:28.031Z,2.60
2018-05-02T11:21:24.566Z,2.40
2018-05-02T11:22:23.913Z,2.30
2018-05-02T11:23:24.698Z,2.70
2018-05-02T11:24:23.950Z,2.60
2018-05-02T11:25:23.960Z,2.60
2018-05-02T11:26:23.975Z,2.60
2018-05-02T11:27:24.006Z,2.60
2018-05-02T11:28:24.076Z,2.60
2018-05-02T11:29:24.043Z,2.50
2018-05-02T11:30:24.053Z,2.70
2018-05-02T11:31:24.059Z,2.40
2018-05-02T11:32:25.544Z,2.20
2018-05-02T11:33:27.288Z,2.20
2018-05-02T11:34:24.109Z,2.40
2018-05-02T11:35:24.126Z,2.70
2018-05-02T11:36:24.169Z,2.70
2018-05-02T11:37:24.159Z,2.70
2018-05-02T11:38:24.177Z,2.60
2018-05-02T11:39:24.191Z,2.80
2018-05-02T11:40:24.213Z,2.20
2018-05-02T11:41:24.543Z,2.70
2018-05-02T11:42:24.255Z,2.30
2018-05-02T11:43:24.267Z,2.80
2018-05-02T11:44:24.282Z,2.60
2018-05-02T11:45:24.297Z,2.60
2018-05-02T11:46:24.316Z,2.70
2018-05-02T11:47:24.341Z,2.60
2018-05-02T11:48:24.352Z,2.80
2018-05-02T11:49:24.425Z,2.50
2018-05-02T11:50:24.384Z,2.60
2018-05-02T11:51:24.401Z,2.50
2018-05-02T11:52:24.427Z,2.70
2018-05-02T11:53:24.435Z,2.90
2018-05-02T11:54:24.455Z,2.70
2018-05-02T11:55:24.479Z,3.00
2018-05-02T11:56:24.503Z,3.00
2018-05-02T11:57:24.499Z,2.70
2018-05-02T11:58:24.519Z,2.70
2018-05-02T11:59:24.535Z,2.60
2018-05-02T12:00:24.562Z,2.80
2018-05-02T12:01:24.571Z,2.50
2018-05-02T12:02:24.600Z,2.80
2018-05-02T12:03:24.604Z,2.80
2018-05-02T12:04:24.624Z,2.70
2018-05-02T12:05:25.653Z,2.80
2018-05-02T12:06:24.658Z,2.70
2018-05-02T12:07:24.673Z,2.80
2018-05-02T12:08:25.567Z,2.50
2018-05-02T12:10:24.827Z,3.00
2018-05-02T12:11:24.744Z,2.50
2018-05-02T12:12:24.757Z,2.80
2018-05-02T12:13:24.774Z,2.80
2018-05-02T12:14:24.792Z,2.90
2018-05-02T12:15:24.814Z,3.00
2018-05-02T12:16:24.830Z,2.70
2018-05-02T12:17:24.845Z,2.40
2018-05-02T12:18:25.166Z,2.70
2018-05-02T12:19:24.897Z,2.60
2018-05-02T12:20:24.935Z,2.20
2018-05-02T12:21:24.914Z,2.60
2018-05-02T12:22:24.929Z,2.60
2018-05-02T12:23:24.961Z,2.70
2018-05-02T12:24:24.966Z,2.30
2018-05-02T12:25:24.992Z,2.50
2018-05-02T12:26:25.014Z,2.70
2018-05-02T12:27:25.073Z,2.50
2018-05-02T12:28:25.037Z,2.50
2018-05-02T12:30:25.249Z,2.80
2018-05-02T12:31:25.089Z,2.60
2018-05-02T12:32:25.105Z,2.80
2018-05-02T12:33:25.123Z,2.70
2018-05-02T12:34:25.140Z,2.50
2018-05-02T12:35:25.248Z,2.70
2018-05-02T12:36:25.185Z,2.90
2018-05-02T12:37:25.203Z,2.60
2018-05-02T12:38:25.219Z,2.60
2018-05-02T12:39:25.241Z,2.80
2018-05-02T12:40:25.252Z,2.60
2018-05-02T12:41:25.264Z,2.70
2018-05-02T12:42:25.284Z,2.80
2018-05-02T12:43:26.074Z,2.60
2018-05-02T12:44:25.325Z,2.80
2018-05-02T12:45:26.675Z,2.70
2018-05-02T12:46:25.579Z,2.70
2018-05-02T12:47:25.382Z,2.50
2018-05-02T12:48:25.395Z,2.50
2018-05-02T12:49:25.411Z,2.60
2018-05-02T12:50:25.578Z,2.60
2018-05-02T12:51:25.447Z,2.80
2018-05-02T12:52:25.468Z,2.90
2018-05-02T12:53:25.484Z,2.70
2018-05-02T12:54:25.525Z,2.70
2018-05-02T12:55:25.522Z,2.80
2018-05-02T12:56:25.538Z,2.50
2018-05-02T12:57:25.660Z,2.80
2018-05-02T12:58:25.629Z,2.20
2018-05-02T12:59:25.631Z,2.40
2018-05-02T13:00:25.612Z,2.20
2018-05-02T13:01:25.633Z,2.70
2018-05-02T13:03:25.675Z,2.60
2018-05-02T13:04:25.735Z,2.40
2018-05-02T13:05:25.704Z,2.50
2018-05-02T13:06:25.727Z,2.30
2018-05-02T13:07:25.748Z,2.30
2018-05-02T13:08:25.789Z,2.40
2018-05-02T13:09:26.479Z,2.40
2018-05-02T13:10:25.805Z,2.40
2018-05-02T13:11:25.834Z,2.50
2018-05-02T13:12:25.840Z,2.30
2018-05-02T13:13:25.858Z,2.10
2018-05-02T13:14:25.899Z,2.20
2018-05-02T13:15:26.447Z,2.30
2018-05-02T13:16:26.943Z,2.60
2018-05-02T13:17:25.940Z,2.70
2018-05-02T13:18:25.966Z,2.40
2018-05-02T13:19:25.992Z,2.60
2018-05-02T13:20:26.025Z,2.60
2018-05-02T13:21:26.031Z,2.20
2018-05-02T13:22:26.057Z,2.20
2018-05-02T13:23:26.157Z,2.70
2018-05-02T13:24:26.103Z,2.30
2018-05-02T13:25:26.134Z,2.70
2018-05-02T13:26:26.151Z,2.40
2018-05-02T13:27:26.170Z,2.80
2018-05-02T13:28:26.190Z,2.30
2018-05-02T13:29:26.223Z,2.40